createdAt,value
2019-02-25T00:00:55.200Z,103682.91
2019-02-25T00:03:24.656Z,103684.19
2019-02-25T00:05:53.996Z,103688.53
2019-02-25T00:08:23.360Z,103688.50
2019-02-25T00:10:52.784Z,103692.83
2019-02-25T00:13:23.258Z,103692.80
2019-02-25T00:15:52.605Z,103688.05
2019-02-25T00:18:21.957Z,103685.43
2019-02-25T00:20:51.409Z,103681.95
2019-02-25T00:23:20.764Z,103678.91
2019-02-25T00:25:50.083Z,103675.44
2019-02-25T00:28:19.568Z,103684.07
2019-02-25T00:30:48.989Z,103684.53
2019-02-25T00:33:18.327Z,103683.62
2019-02-25T00:35:47.678Z,103687.97
2019-02-25T00:38:17.111Z,103686.19
2019-02-25T00:40:48.273Z,103682.75
2019-02-25T00:43:17.630Z,103684.44
2019-02-25T00:45:46.953Z,103679.67
2019-02-25T00:48:16.296Z,103679.25
2019-02-25T00:50:45.679Z,103679.67
2019-02-25T00:53:15.009Z,103679.25
2019-02-25T00:55:44.350Z,103681.84
2019-02-25T00:58:13.773Z,103676.66
2019-02-25T01:00:43.131Z,103682.69
2019-02-25T01:03:12.452Z,103681.81
2019-02-25T01:05:41.815Z,103675.71
2019-02-25T01:08:11.133Z,103666.17
2019-02-25T01:10:40.441Z,103668.77
2019-02-25T01:13:22.170Z,103667.44
2019-02-25T01:15:51.512Z,103669.20
2019-02-25T01:18:20.875Z,103667.86
2019-02-25T01:20:50.231Z,103668.28
2019-02-25T01:23:19.563Z,103661.77
2019-02-25T01:25:49.014Z,103663.06
2019-02-25T01:28:18.346Z,103663.48
2019-02-25T01:30:47.703Z,103668.68
2019-02-25T01:33:17.039Z,103669.09
2019-02-25T01:35:46.381Z,103665.66
2019-02-25T01:38:16.811Z,103669.09
2019-02-25T01:40:47.166Z,103661.28
2019-02-25T01:43:16.509Z,103665.17
2019-02-25T01:45:45.839Z,103668.16
2019-02-25T01:48:15.289Z,103666.83
2019-02-25T01:50:44.636Z,103670.30
2019-02-25T01:53:13.994Z,103668.55
2019-02-25T01:55:43.463Z,103670.27
2019-02-25T01:58:12.750Z,103669.39
2019-02-25T02:00:42.174Z,103671.53
2019-02-25T02:03:11.521Z,103672.83
2019-02-25T02:05:40.876Z,103663.74
2019-02-25T02:08:10.195Z,103668.90
2019-02-25T02:10:39.546Z,103665.00
2019-02-25T02:13:14.175Z,103664.97
2019-02-25T02:15:39.933Z,103670.59
2019-02-25T02:18:09.259Z,103661.05
2019-02-25T02:20:38.846Z,103657.16
2019-02-25T02:23:08.162Z,103651.93
2019-02-25T02:25:37.541Z,103646.28
2019-02-25T02:28:08.766Z,103648.00
2019-02-25T02:30:38.112Z,103638.47
2019-02-25T02:33:07.414Z,103636.26
2019-02-25T02:35:36.758Z,103630.19
2019-02-25T02:38:06.186Z,103623.25
2019-02-25T02:40:35.553Z,103626.69
2019-02-25T02:43:04.896Z,103623.21
2019-02-25T02:45:44.258Z,103619.71
2019-02-25T02:48:32.377Z,103614.52
2019-02-25T02:51:01.719Z,103598.92
2019-02-25T02:53:31.060Z,103605.38
2019-02-25T02:56:00.417Z,103588.94
2019-02-25T02:58:29.842Z,103587.64
2019-02-25T03:00:59.195Z,103584.17
2019-02-25T03:03:28.508Z,103578.11
2019-02-25T03:05:57.866Z,103571.59
2019-02-25T03:08:27.194Z,103564.65
2019-02-25T03:10:56.526Z,103567.62
2019-02-25T03:13:25.844Z,103563.70
2019-02-25T03:15:55.211Z,103559.78
2019-02-25T03:18:24.544Z,103549.79
2019-02-25T03:20:53.918Z,103551.92
2019-02-25T03:23:23.372Z,103544.95
2019-02-25T03:25:52.681Z,103535.84
2019-02-25T03:28:22.007Z,103533.59
2019-02-25T03:30:51.321Z,103529.25
2019-02-25T03:33:20.781Z,103521.44
2019-02-25T03:35:50.103Z,103517.55
2019-02-25T03:38:19.465Z,103520.55
2019-02-25T03:40:48.777Z,103523.11
2019-02-25T03:43:18.083Z,103526.53
2019-02-25T03:45:47.436Z,103529.09
2019-02-25T03:48:16.751Z,103527.38
2019-02-25T03:50:46.117Z,103534.23
2019-02-25T03:53:15.571Z,103534.22
2019-02-25T03:55:44.901Z,103538.94
2019-02-25T03:58:14.265Z,103547.52
2019-02-25T04:00:43.575Z,103539.32
2019-02-25T04:03:12.932Z,103538.86
2019-02-25T04:05:42.327Z,103539.24
2019-02-25T04:08:11.674Z,103538.36
2019-02-25T04:10:41.082Z,103543.95
2019-02-25T04:13:10.417Z,103549.97
2019-02-25T04:15:42.508Z,103543.48
2019-02-25T04:18:11.883Z,103543.03
2019-02-25T04:20:41.325Z,103535.27
2019-02-25T04:23:10.858Z,103533.55
2019-02-25T04:25:40.207Z,103536.14
2019-02-25T04:28:09.568Z,103536.98
2019-02-25T04:30:38.892Z,103532.20
2019-02-25T04:33:09.290Z,103530.00
2019-02-25T04:35:38.641Z,103533.88
2019-02-25T04:38:07.985Z,103533.00
2019-02-25T04:40:37.318Z,103530.41
2019-02-25T04:43:06.666Z,103530.82
2019-02-25T04:45:36.079Z,103528.61
2019-02-25T04:48:05.442Z,103525.97
2019-02-25T04:50:34.760Z,103521.16
2019-02-25T04:53:04.112Z,103523.29
2019-02-25T04:55:34.468Z,103528.88
2019-02-25T04:58:03.798Z,103528.42
2019-02-25T05:00:33.253Z,103531.42
2019-02-25T05:03:02.576Z,103532.26
2019-02-25T05:05:31.914Z,103530.95
2019-02-25T05:08:01.245Z,103525.77
2019-02-25T05:10:30.590Z,103532.67
2019-02-25T05:13:02.666Z,103533.95
2019-02-25T05:15:32.404Z,103537.84
2019-02-25T05:18:01.814Z,103534.34
2019-02-25T05:20:31.297Z,103538.67
2019-02-25T05:23:00.750Z,103537.75
2019-02-25T05:25:30.171Z,103540.34
2019-02-25T05:27:59.525Z,103541.20
2019-02-25T05:30:28.962Z,103550.68
2019-02-25T05:32:58.330Z,103544.58
2019-02-25T05:35:27.692Z,103550.17
2019-02-25T05:37:57.002Z,103540.23
2019-02-25T05:40:26.334Z,103537.64
2019-02-25T05:42:55.679Z,103535.84
2019-02-25T05:45:24.988Z,103540.50
2019-02-25T05:47:54.372Z,103543.91
2019-02-25T05:50:23.697Z,103541.28
2019-02-25T05:52:53.049Z,103537.81
2019-02-25T05:55:24.217Z,103543.45
2019-02-25T05:57:53.535Z,103533.93
2019-02-25T06:00:25.103Z,103545.16
2019-02-25T06:02:54.473Z,103540.81
2019-02-25T06:05:23.801Z,103543.81
2019-02-25T06:07:53.185Z,103549.82
2019-02-25T06:10:22.510Z,103549.39
2019-02-25T06:12:51.852Z,103554.52
2019-02-25T06:15:22.679Z,103548.87
2019-02-25T06:17:52.297Z,103554.05
2019-02-25T06:20:21.639Z,103553.59
2019-02-25T06:22:50.998Z,103559.22
2019-02-25T06:25:20.323Z,103556.62
2019-02-25T06:27:49.662Z,103559.16
2019-02-25T06:30:19.069Z,103557.83
2019-02-25T06:32:48.451Z,103557.81
2019-02-25T06:35:17.881Z,103561.66
2019-02-25T06:37:47.236Z,103561.22
2019-02-25T06:40:16.875Z,103558.59
2019-02-25T06:42:46.208Z,103554.28
2019-02-25T06:45:17.143Z,103553.41
2019-02-25T06:47:46.480Z,103546.13
2019-02-25T06:50:17.037Z,103547.47
2019-02-25T06:52:48.261Z,103550.94
2019-02-25T06:55:17.993Z,103550.16
2019-02-25T06:57:47.353Z,103546.77
2019-02-25T07:00:18.048Z,103543.39
2019-02-25T07:02:47.612Z,103547.34
2019-02-25T07:05:25.370Z,103548.27
2019-02-25T07:08:10.610Z,103539.68
2019-02-25T07:11:01.705Z,103546.70
2019-02-25T07:13:49.947Z,103542.86
2019-02-25T07:16:40.571Z,103549.39
2019-02-25T07:19:28.820Z,103543.80
2019-02-25T07:22:22.692Z,103543.39
2019-02-25T07:25:26.335Z,103539.56
2019-02-25T07:28:20.741Z,103540.48
2019-02-25T07:31:18.824Z,103541.45
2019-02-25T07:34:09.887Z,103544.56
2019-02-25T07:37:01.302Z,103546.82
2019-02-25T07:40:04.665Z,103555.09
2019-02-25T07:42:44.997Z,103553.43
2019-02-25T07:45:27.960Z,103561.25
2019-02-25T07:48:19.640Z,103566.52
2019-02-25T07:51:06.871Z,103574.38
2019-02-25T07:53:51.898Z,103571.38
2019-02-25T07:56:48.783Z,103577.02
2019-02-25T07:59:26.024Z,103573.17
2019-02-25T08:02:26.464Z,103584.03
2019-02-25T08:05:20.927Z,103584.46
2019-02-25T08:08:02.173Z,103595.74
2019-02-25T08:10:38.154Z,103594.91
2019-02-25T08:13:25.211Z,103600.13
2019-02-25T08:16:12.355Z,103601.05
2019-02-25T08:19:09.896Z,103605.82
2019-02-25T08:21:58.412Z,103609.33
2019-02-25T08:24:44.701Z,103614.13
2019-02-25T08:27:33.126Z,103622.38
2019-02-25T08:30:33.843Z,103624.13
2019-02-25T08:33:20.755Z,103629.35
2019-02-25T08:37:06.947Z,103628.97
2019-02-25T08:39:48.401Z,103636.37
2019-02-25T08:42:51.212Z,103641.14
2019-02-25T08:45:25.999Z,103642.94
2019-02-25T08:48:20.452Z,103649.87
2019-02-25T08:50:49.798Z,103650.75
2019-02-25T08:53:19.235Z,103652.97
2019-02-25T08:55:48.613Z,103657.73
2019-02-25T08:58:18.566Z,103659.06
2019-02-25T09:00:47.861Z,103658.66
2019-02-25T09:03:17.209Z,103664.75
2019-02-25T09:05:46.541Z,103661.32
2019-02-25T09:08:15.900Z,103670.89
2019-02-25T09:10:45.222Z,103674.37
2019-02-25T09:13:14.580Z,103679.17
2019-02-25T09:15:43.927Z,103678.36
2019-02-25T09:18:13.264Z,103677.98
2019-02-25T09:20:42.597Z,103678.86
2019-02-25T09:23:11.973Z,103670.27
2019-02-25T09:25:41.326Z,103674.61
2019-02-25T09:28:10.674Z,103670.78
2019-02-25T09:30:40.051Z,103668.68
2019-02-25T09:33:09.379Z,103677.37
2019-02-25T09:35:38.758Z,103668.77
2019-02-25T09:38:08.099Z,103667.95
2019-02-25T09:40:37.454Z,103668.89
2019-02-25T09:43:06.811Z,103666.77
2019-02-25T09:45:36.165Z,103670.72
2019-02-25T09:48:05.507Z,103668.60
2019-02-25T09:50:34.839Z,103675.55
2019-02-25T09:53:04.206Z,103669.95
2019-02-25T09:55:33.544Z,103669.58
2019-02-25T09:58:02.932Z,103662.69
2019-02-25T10:00:32.355Z,103663.58
2019-02-25T10:03:01.728Z,103662.33
2019-02-25T10:05:31.170Z,103662.37
2019-02-25T10:08:00.516Z,103658.91
2019-02-25T10:10:29.857Z,103652.00
2019-02-25T10:12:59.214Z,103654.23
2019-02-25T10:15:28.590Z,103649.46
2019-02-25T10:17:57.952Z,103646.87
2019-02-25T10:20:27.277Z,103656.02
2019-02-25T10:22:56.636Z,103653.00
2019-02-25T10:25:26.001Z,103652.14
2019-02-25T10:27:55.369Z,103653.91
2019-02-25T10:30:24.998Z,103658.23
2019-02-25T10:32:54.328Z,103662.18
2019-02-25T10:35:24.928Z,103673.04
2019-02-25T10:37:54.325Z,103674.35
2019-02-25T10:40:25.394Z,103677.83
2019-02-25T10:42:54.729Z,103681.77
2019-02-25T10:45:24.288Z,103686.98
2019-02-25T10:47:58.261Z,103687.01
2019-02-25T10:50:24.693Z,103680.49
2019-02-25T10:53:03.010Z,103678.34
2019-02-25T10:55:30.853Z,103675.31
2019-02-25T10:58:02.037Z,103667.52
2019-02-25T11:00:31.313Z,103664.08
2019-02-25T11:03:00.637Z,103664.95
2019-02-25T11:05:30.710Z,103670.59
2019-02-25T11:08:02.853Z,103671.48
2019-02-25T11:10:47.004Z,103673.22
2019-02-25T11:13:17.111Z,103673.21
2019-02-25T11:15:48.334Z,103666.70
2019-02-25T11:18:19.810Z,103671.48
2019-02-25T11:20:48.577Z,103673.66
2019-02-25T11:23:19.410Z,103678.88
2019-02-25T11:25:51.371Z,103673.67
2019-02-25T11:28:25.399Z,103667.16
2019-02-25T11:30:53.682Z,103661.94
2019-02-25T11:33:25.092Z,103661.06
2019-02-25T11:35:54.062Z,103657.13
2019-02-25T11:38:24.185Z,103648.00
2019-02-25T11:40:54.472Z,103634.06
2019-02-25T11:43:23.835Z,103631.44
2019-02-25T11:45:53.174Z,103621.41
2019-02-25T11:48:22.728Z,103619.63
2019-02-25T11:50:52.168Z,103620.05
2019-02-25T11:53:21.602Z,103611.75
2019-02-25T11:55:50.963Z,103612.98
2019-02-25T11:58:20.331Z,103607.30
2019-02-25T12:00:49.669Z,103605.08
2019-02-25T12:03:19.019Z,103596.73
2019-02-25T12:05:48.412Z,103597.50
2019-02-25T12:08:17.748Z,103588.73
2019-02-25T12:10:47.084Z,103583.88
2019-02-25T12:13:16.466Z,103578.55
2019-02-25T12:15:45.797Z,103578.55
2019-02-25T12:18:15.181Z,103560.45
2019-02-25T12:20:44.514Z,103560.45
2019-02-25T12:23:13.865Z,103555.55
2019-02-25T12:25:43.239Z,103551.06
2019-02-25T12:28:12.580Z,103546.58
2019-02-25T12:30:41.941Z,103543.30
2019-02-25T12:33:11.274Z,103543.30
2019-02-25T12:35:40.635Z,103534.43
2019-02-25T12:38:09.974Z,103537.38
2019-02-25T12:40:40.254Z,103506.68
2019-02-25T12:43:09.639Z,103505.95
2019-02-25T12:45:39.005Z,103514.03
2019-02-25T12:48:08.335Z,103514.03
2019-02-25T12:50:37.688Z,103502.98
2019-02-25T12:53:07.052Z,103497.13
2019-02-25T12:55:36.404Z,103481.59
2019-02-25T12:58:05.752Z,103481.59
2019-02-25T13:00:35.086Z,103480.52
2019-02-25T13:03:04.466Z,103465.80
2019-02-25T13:05:33.829Z,103467.81
2019-02-25T13:08:03.169Z,103467.81
2019-02-25T13:10:32.531Z,103458.09
2019-02-25T13:13:01.872Z,103454.83
2019-02-25T13:15:31.269Z,103455.98
2019-02-25T13:18:00.604Z,103453.67
2019-02-25T13:20:29.961Z,103451.75
2019-02-25T13:22:59.324Z,103447.69
2019-02-25T13:25:28.752Z,103444.47
2019-02-25T13:27:58.737Z,103437.19
2019-02-25T13:30:28.800Z,103437.50
2019-02-25T13:32:58.176Z,103433.86
2019-02-25T13:35:27.538Z,103432.34
2019-02-25T13:37:56.886Z,103432.10
2019-02-25T13:40:26.279Z,103432.78
2019-02-25T13:42:55.739Z,103436.06
2019-02-25T13:45:25.076Z,103431.55
2019-02-25T13:47:54.436Z,103435.73
2019-02-25T13:50:23.801Z,103431.59
2019-02-25T13:52:53.162Z,103435.23
2019-02-25T13:55:22.578Z,103435.84
2019-02-25T13:57:51.915Z,103434.82
2019-02-25T14:00:21.558Z,103436.37
2019-02-25T14:02:51.008Z,103430.89
2019-02-25T14:05:20.615Z,103432.83
2019-02-25T14:07:49.948Z,103429.59
2019-02-25T14:10:19.488Z,103426.69
2019-02-25T14:12:48.934Z,103416.05
2019-02-25T14:15:18.999Z,103416.05
2019-02-25T14:17:48.347Z,103424.52
2019-02-25T14:20:18.427Z,103414.80
2019-02-25T14:22:47.797Z,103398.76
2019-02-25T14:25:19.753Z,103412.55
2019-02-25T14:27:49.239Z,103408.41
2019-02-25T14:30:21.462Z,103402.55
2019-02-25T14:32:53.509Z,103409.31
2019-02-25T14:35:28.146Z,103402.57
2019-02-25T14:37:57.662Z,103403.64
2019-02-25T14:40:26.967Z,103399.09
2019-02-25T14:42:59.549Z,103400.50
2019-02-25T14:45:28.862Z,103390.73
2019-02-25T14:47:59.899Z,103385.66
2019-02-25T14:50:30.565Z,103386.78
2019-02-25T14:53:00.717Z,103379.84
2019-02-25T14:55:30.959Z,103392.37
2019-02-25T14:58:04.450Z,103398.38
2019-02-25T15:00:34.877Z,103392.37
2019-02-25T15:03:03.048Z,103395.84
2019-02-25T15:05:32.375Z,103390.22
2019-02-25T15:08:01.886Z,103397.87
2019-02-25T15:10:31.601Z,103397.48
2019-02-25T15:13:04.016Z,103393.02
2019-02-25T15:15:34.815Z,103394.34
2019-02-25T15:18:04.459Z,103385.21
2019-02-25T15:20:34.317Z,103387.84
2019-02-25T15:23:04.543Z,103386.95
2019-02-25T15:25:35.873Z,103389.94
2019-02-25T15:28:07.137Z,103386.84
2019-02-25T15:30:36.243Z,103379.84
2019-02-25T15:33:05.693Z,103377.21
2019-02-25T15:35:36.959Z,103376.24
2019-02-25T15:38:06.120Z,103379.30
2019-02-25T15:40:35.468Z,103379.23
2019-02-25T15:43:13.227Z,103379.55
2019-02-25T15:45:43.442Z,103383.44
2019-02-25T15:48:17.394Z,103388.77
2019-02-25T15:50:48.419Z,103383.53
2019-02-25T15:53:18.270Z,103382.28
2019-02-25T15:55:47.943Z,103391.05
2019-02-25T15:58:18.384Z,103383.15
2019-02-25T16:00:48.134Z,103394.59
2019-02-25T16:03:20.492Z,103390.09
2019-02-25T16:05:52.314Z,103387.91
2019-02-25T16:08:23.591Z,103390.63
2019-02-25T16:10:55.583Z,103395.03
2019-02-25T16:13:25.117Z,103389.77
2019-02-25T16:15:54.930Z,103390.22
2019-02-25T16:18:27.475Z,103391.25
2019-02-25T16:20:57.504Z,103392.31
2019-02-25T16:23:30.168Z,103383.73
2019-02-25T16:25:59.599Z,103395.66
2019-02-25T16:28:30.783Z,103400.92
2019-02-25T16:31:00.419Z,103395.66
2019-02-25T16:33:30.857Z,103388.20
2019-02-25T16:36:01.280Z,103396.62
2019-02-25T16:38:34.125Z,103385.92
2019-02-25T16:41:03.775Z,103404.38
2019-02-25T16:43:34.037Z,103390.03
2019-02-25T16:46:06.116Z,103392.70
2019-02-25T16:48:34.642Z,103390.09
2019-02-25T16:51:07.147Z,103396.25
2019-02-25T16:53:38.673Z,103401.70
2019-02-25T16:56:07.893Z,103403.69
2019-02-25T16:58:38.167Z,103403.81
2019-02-25T17:01:10.514Z,103393.02
2019-02-25T17:03:41.495Z,103395.86
2019-02-25T17:06:13.811Z,103397.95
2019-02-25T17:08:42.878Z,103394.41
2019-02-25T17:11:12.925Z,103400.52
2019-02-25T17:13:43.338Z,103397.62
2019-02-25T17:16:18.254Z,103397.62
2019-02-25T17:18:46.349Z,103394.13
2019-02-25T17:21:16.206Z,103426.98
2019-02-25T17:23:45.643Z,103408.52
2019-02-25T17:26:17.294Z,103403.30
2019-02-25T17:28:46.335Z,103403.30
2019-02-25T17:31:16.352Z,103407.95
2019-02-25T17:33:48.671Z,103413.38
2019-02-25T17:36:19.360Z,103413.38
2019-02-25T17:38:50.165Z,103410.62
2019-02-25T17:41:21.201Z,103415.67
2019-02-25T17:43:50.582Z,103420.31
2019-02-25T17:46:21.047Z,103421.41
2019-02-25T17:48:50.473Z,103420.36
2019-02-25T17:51:20.863Z,103424.06
2019-02-25T17:53:52.703Z,103421.64
2019-02-25T17:56:23.060Z,103425.33
2019-02-25T17:58:53.191Z,103421.59
2019-02-25T18:01:24.193Z,103437.02
2019-02-25T18:03:53.841Z,103448.50
2019-02-25T18:06:29.447Z,103441.69
2019-02-25T18:08:55.391Z,103446.61
2019-02-25T18:11:25.595Z,103443.25
2019-02-25T18:13:55.648Z,103441.19
2019-02-25T18:16:26.034Z,103451.30
2019-02-25T18:18:55.487Z,103432.38
2019-02-25T18:21:28.895Z,103439.43
2019-02-25T18:23:57.860Z,103439.43
2019-02-25T18:26:28.558Z,103439.14
2019-02-25T18:28:58.647Z,103440.52
2019-02-25T18:31:28.411Z,103428.09
2019-02-25T18:33:57.869Z,103432.94
2019-02-25T18:36:28.829Z,103432.94
2019-02-25T18:38:58.284Z,103443.09
2019-02-25T18:41:31.805Z,103443.09
2019-02-25T18:43:58.791Z,103431.02
2019-02-25T18:46:29.831Z,103429.80
2019-02-25T18:48:59.454Z,103429.80
2019-02-25T18:51:30.510Z,103435.95
2019-02-25T18:54:01.920Z,103435.14
2019-02-25T18:56:31.667Z,103439.95
2019-02-25T18:59:07.819Z,103429.99
2019-02-25T19:01:33.781Z,103430.48
2019-02-25T19:04:03.114Z,103430.53
2019-02-25T19:06:32.507Z,103434.50
2019-02-25T19:09:02.035Z,103429.30
2019-02-25T19:11:31.817Z,103423.26
2019-02-25T19:14:03.622Z,103426.39
2019-02-25T19:16:32.268Z,103426.87
2019-02-25T19:19:04.065Z,103426.87
2019-02-25T19:21:34.206Z,103413.06
2019-02-25T19:24:05.444Z,103413.06
2019-02-25T19:26:34.773Z,103421.80
2019-02-25T19:29:04.798Z,103423.58
2019-02-25T19:31:34.124Z,103423.58
2019-02-25T19:34:03.553Z,103423.16
2019-02-25T19:36:35.032Z,103414.93
2019-02-25T19:39:09.387Z,103416.27
2019-02-25T19:41:36.676Z,103418.45
2019-02-25T19:44:06.505Z,103413.73
2019-02-25T19:46:37.182Z,103413.73
2019-02-25T19:49:06.516Z,103427.67
2019-02-25T19:51:35.888Z,103424.22
2019-02-25T19:54:07.060Z,103426.44
2019-02-25T19:56:36.498Z,103426.44
2019-02-25T19:59:07.798Z,103416.09
2019-02-25T20:01:39.241Z,103416.09
2019-02-25T20:04:09.160Z,103419.55
2019-02-25T20:06:39.184Z,103426.08
2019-02-25T20:09:08.859Z,103430.00
2019-02-25T20:11:38.219Z,103426.55
2019-02-25T20:14:07.682Z,103430.04
2019-02-25T20:16:37.035Z,103440.44
2019-02-25T20:19:06.863Z,103434.38
2019-02-25T20:21:36.342Z,103435.26
2019-02-25T20:24:07.723Z,103436.56
2019-02-25T20:26:36.755Z,103429.19
2019-02-25T20:29:07.965Z,103429.19
2019-02-25T20:31:37.226Z,103427.02
2019-02-25T20:34:06.583Z,103429.20
2019-02-25T20:36:36.121Z,103429.22
2019-02-25T20:39:06.391Z,103427.91
2019-02-25T20:41:35.752Z,103425.32
2019-02-25T20:44:05.216Z,103419.26
2019-02-25T20:46:35.367Z,103414.48
2019-02-25T20:49:04.923Z,103421.00
2019-02-25T20:51:36.055Z,103421.00
2019-02-25T20:54:05.592Z,103414.94
2019-02-25T20:56:35.019Z,103416.68
2019-02-25T20:59:06.163Z,103407.16
2019-02-25T21:01:39.571Z,103410.20
2019-02-25T21:04:08.878Z,103411.08
2019-02-25T21:06:39.760Z,103414.13
2019-02-25T21:09:11.127Z,103421.95
2019-02-25T21:11:40.674Z,103425.41
2019-02-25T21:14:10.185Z,103435.41
2019-02-25T21:16:39.530Z,103430.19
2019-02-25T21:19:10.808Z,103439.77
2019-02-25T21:21:40.033Z,103436.72
2019-02-25T21:24:11.289Z,103436.73
2019-02-25T21:26:41.493Z,103442.37
2019-02-25T21:29:10.877Z,103440.64
2019-02-25T21:31:43.036Z,103438.46
2019-02-25T21:34:15.166Z,103437.61
2019-02-25T21:36:42.625Z,103438.03
2019-02-25T21:39:14.553Z,103448.45
2019-02-25T21:41:45.716Z,103451.50
2019-02-25T21:44:18.851Z,103450.20
2019-02-25T21:46:49.507Z,103448.44
2019-02-25T21:49:16.962Z,103445.84
2019-02-25T21:51:48.002Z,103447.13
2019-02-25T21:54:17.432Z,103454.95
2019-02-25T21:56:46.750Z,103449.75
2019-02-25T21:59:17.567Z,103447.13
2019-02-25T22:01:46.998Z,103449.30
2019-02-25T22:04:18.004Z,103447.16
2019-02-25T22:06:51.005Z,103448.44
2019-02-25T22:09:22.657Z,103444.09
2019-02-25T22:11:49.808Z,103448.86
2019-02-25T22:14:21.756Z,103440.19
2019-02-25T22:16:52.673Z,103441.08
2019-02-25T22:19:21.716Z,103443.23
2019-02-25T22:21:53.533Z,103443.67
2019-02-25T22:24:24.812Z,103433.69
2019-02-25T22:26:53.731Z,103438.03
2019-02-25T22:29:24.297Z,103442.34
2019-02-25T22:31:53.646Z,103444.51
2019-02-25T22:34:25.241Z,103444.50
2019-02-25T22:36:55.939Z,103444.94
2019-02-25T22:39:27.298Z,103443.20
2019-02-25T22:41:56.231Z,103436.27
2019-02-25T22:44:27.024Z,103440.16
2019-02-25T22:46:56.647Z,103443.16
2019-02-25T22:49:27.915Z,103442.30
2019-02-25T22:51:58.166Z,103444.45
2019-02-25T22:54:28.133Z,103443.57
2019-02-25T22:56:57.475Z,103445.30
2019-02-25T22:59:26.838Z,103445.30
2019-02-25T23:01:56.171Z,103448.75
2019-02-25T23:04:26.495Z,103446.59
2019-02-25T23:06:55.900Z,103447.42
2019-02-25T23:09:25.866Z,103446.13
2019-02-25T23:11:55.588Z,103448.70
2019-02-25T23:14:24.854Z,103451.28
2019-02-25T23:16:54.195Z,103448.67
2019-02-25T23:19:23.545Z,103452.15
2019-02-25T23:21:52.917Z,103453.43
2019-02-25T23:24:26.007Z,103459.02
2019-02-25T23:26:55.095Z,103462.05
2019-02-25T23:29:28.232Z,103465.94
2019-02-25T23:31:55.602Z,103465.91
2019-02-25T23:34:25.000Z,103471.11
2019-02-25T23:36:56.124Z,103469.38
2019-02-25T23:39:32.396Z,103466.33
2019-02-25T23:42:05.020Z,103465.04
2019-02-25T23:44:33.778Z,103461.12
2019-02-25T23:47:04.423Z,103460.70
2019-02-25T23:49:36.415Z,103456.36
2019-02-25T23:52:05.242Z,103451.17
2019-02-25T23:54:34.644Z,103454.19
2019-02-25T23:57:04.002Z,103446.38
2019-02-25T23:59:33.351Z,103453.30
